createdAt,value
2023-05-10T00:21:05.859Z,9.26
2023-05-10T00:51:08.737Z,8.90
2023-05-10T01:21:12.309Z,8.53
2023-05-10T01:51:15.167Z,8.10
2023-05-10T02:21:19.716Z,7.76
2023-05-10T02:51:22.657Z,7.20
2023-05-10T03:21:26.244Z,6.72
2023-05-10T03:51:29.163Z,6.69
2023-05-10T04:21:32.628Z,6.97
2023-05-10T04:51:35.501Z,7.80
2023-05-10T05:21:39.967Z,8.81
2023-05-10T05:51:42.960Z,9.88
2023-05-10T06:21:46.718Z,11.16
2023-05-10T06:51:50.094Z,12.54
2023-05-10T07:21:53.059Z,14.18
2023-05-10T07:51:56.653Z,15.80
2023-05-10T08:21:59.780Z,17.13
2023-05-10T08:52:02.991Z,18.44
2023-05-10T09:22:08.712Z,19.64
2023-05-10T09:52:12.016Z,20.47
2023-05-10T10:22:15.086Z,21.26
2023-05-10T10:52:18.663Z,21.72
2023-05-10T11:22:21.916Z,22.07
2023-05-10T11:52:25.212Z,22.63
2023-05-10T12:22:29.274Z,22.99
2023-05-10T12:52:32.712Z,23.06
2023-05-10T13:22:40.137Z,23.02
2023-05-10T13:52:44.678Z,22.98
2023-05-10T14:22:47.935Z,22.82
2023-05-10T14:52:51.237Z,22.22
2023-05-10T15:22:54.790Z,22.27
2023-05-10T15:52:58.265Z,21.72
2023-05-10T16:23:01.189Z,21.52
2023-05-10T16:53:04.600Z,20.75
2023-05-10T17:23:08.360Z,19.64
2023-05-10T17:53:12.040Z,18.92
2023-05-10T18:23:15.314Z,17.98
2023-05-10T18:53:18.654Z,17.11
2023-05-10T19:23:22.468Z,16.58
2023-05-10T19:53:26.031Z,16.32
2023-05-10T20:23:29.043Z,15.96
2023-05-10T20:53:32.211Z,15.46
2023-05-10T21:23:35.559Z,14.74
2023-05-10T21:53:39.217Z,14.15
2023-05-10T22:23:42.190Z,13.37
2023-05-10T22:53:45.663Z,12.82
2023-05-10T23:23:48.721Z,12.25
2023-05-10T23:53:52.047Z,11.67
